Trainsmeadow, New York
Current Conditions -  °F | °C
As of 9:51 PM on Saturday 20 Dec 2014 (Local Time) from KLGA Reporting Station
Overcast Overcast  
Wind Chill: 28°   Ceiling: 3000
Heat Index: 33°   Visibility: 10mi
Dew Point: 23°   Wind: 6mph
Humidity: 66%   Direction: 360°N
Pressure: 30.3"   Gusts: NA
Location:  40.7696°N, 73.8809°W
Report Text: KLGA 210251Z 36005KT 10SM OVC030 01/M05 A3030 RMK AO2 SLP259 T00061050 53003
Loading
Personal Weather Stations






























Interactive Weather Map New forecast layout! Learn more

10-Day Weather Forecast

Advertisements
Track Severe Weather on mobile